Time;durP1;ratioP1;P1;durP2;ratioP2;P2;SDS_P1;SDS_P2;PMS_P1;PMS_P2;Temp;Humidity;BMP_temperature;BMP_pressure;BME280_temperature;BME280_humidity;BME280_pressure;Samples;Min_cycle;Max_cycle;Signal;HPM_P1;HPM_P2
2022/08/18 00:00:12;;;;;;;41.17;37.50;;;;;;;20.11;100.00;101176.72;5278407;28;20489;-67
2022/08/18 00:02:43;;;;;;;41.33;37.42;;;;;;;20.03;100.00;101179.47;5279726;28;20475;-66
2022/08/18 00:05:14;;;;;;;40.43;36.73;;;;;;;20.10;100.00;101188.38;5280698;28;20085;-66
2022/08/18 00:07:46;;;;;;;42.70;38.60;;;;;;;20.03;100.00;101176.00;5279967;28;20032;-67
2022/08/18 00:10:17;;;;;;;40.83;37.13;;;;;;;20.13;100.00;101203.16;5277945;28;20028;-67
2022/08/18 00:12:48;;;;;;;39.67;36.07;;;;;;;20.16;100.00;101202.78;5281189;28;20039;-67
2022/08/18 00:15:20;;;;;;;42.00;38.07;;;;;;;20.16;100.00;101197.47;5281274;28;20028;-67
2022/08/18 00:17:51;;;;;;;40.50;36.90;;;;;;;20.22;100.00;101204.69;5280724;28;20273;-66
2022/08/18 00:20:23;;;;;;;38.93;35.43;;;;;;;20.27;100.00;101205.00;5279954;28;20031;-66
2022/08/18 00:22:55;;;;;;;40.13;36.50;;;;;;;20.27;100.00;101199.66;5278168;28;20035;-66
2022/08/18 00:25:26;;;;;;;40.37;36.63;;;;;;;20.22;100.00;101196.72;5280833;28;20020;-66
2022/08/18 00:27:58;;;;;;;39.80;36.27;;;;;;;20.22;100.00;101204.69;5280685;28;20024;-65
2022/08/18 00:30:29;;;;;;;42.73;38.60;;;;;;;20.16;100.00;101206.28;5278203;28;20129;-66
2022/08/18 00:33:01;;;;;;;39.83;36.23;;;;;;;20.16;100.00;101211.59;5279237;28;20036;-66
2022/08/18 00:35:36;;;;;;;41.37;37.57;;;;;;;20.19;100.00;101207.72;5280187;28;20134;-66
2022/08/18 00:38:08;;;;;;;39.55;36.22;;;;;;;20.17;100.00;101210.56;5279758;28;20029;-66
2022/08/18 00:40:45;;;;;;;40.87;37.07;;;;;;;20.25;100.00;101211.50;5279723;28;20485;-65
2022/08/18 00:43:22;;;;;;;38.58;34.88;;;;;;;20.29;100.00;101221.56;5278103;28;20032;-66
2022/08/18 00:45:54;;;;;;;39.63;35.88;;;;;;;20.12;100.00;101220.13;5276654;28;20053;-67
2022/08/18 00:48:25;;;;;;;39.97;36.20;;;;;;;20.22;100.00;101227.81;5277590;28;20031;-66
2022/08/18 00:50:59;;;;;;;37.43;34.10;;;;;;;20.26;100.00;101231.75;5274818;28;20082;-66
2022/08/18 00:53:38;;;;;;;38.85;35.45;;;;;;;20.23;100.00;101219.66;5280522;28;20048;-67
2022/08/18 00:56:13;;;;;;;38.33;35.00;;;;;;;20.13;100.00;101221.78;5279071;28;20032;-66
2022/08/18 00:59:16;;;;;;;39.28;35.67;;;;;;;20.28;100.00;101211.94;5274769;28;20032;-67
2022/08/18 01:01:50;;;;;;;36.95;33.33;;;;;;;20.17;100.00;101217.72;5276762;28;20048;-66
2022/08/18 01:04:28;;;;;;;35.85;32.65;;;;;;;20.18;100.00;101209.56;5277214;28;20498;-66
2022/08/18 01:07:05;;;;;;;34.30;31.10;;;;;;;20.09;100.00;101209.84;5276708;28;20025;-66
2022/08/18 01:09:36;;;;;;;34.40;31.10;;;;;;;20.06;100.00;101220.84;5276833;28;20135;-66
2022/08/18 01:12:09;;;;;;;34.47;31.23;;;;;;;20.04;100.00;101214.88;5277036;28;20119;-66
2022/08/18 01:14:40;;;;;;;33.63;30.63;;;;;;;20.05;100.00;101205.91;5275662;28;20119;-67
2022/08/18 01:22:56;;;;;;;33.88;30.98;;;;;;;19.92;100.00;101206.53;5276220;28;20534;-66
2022/08/18 01:28:20;;;;;;;33.85;30.75;;;;;;;19.84;100.00;101209.28;5277145;28;20017;-66
2022/08/18 01:30:56;;;;;;;34.30;30.85;;;;;;;19.78;100.00;101207.38;5276327;28;20020;-67
2022/08/18 01:33:37;;;;;;;33.33;30.30;;;;;;;19.82;100.00;101206.00;5275834;28;20021;-66
2022/08/18 01:36:15;;;;;;;34.78;31.38;;;;;;;19.78;100.00;101199.38;5276066;28;20129;-66
2022/08/18 01:38:49;;;;;;;34.75;31.42;;;;;;;19.72;100.00;101202.75;5275875;28;20021;-67
2022/08/18 01:41:22;;;;;;;34.15;30.55;;;;;;;19.63;100.00;101202.03;5273239;28;20021;-67
2022/08/18 01:43:53;;;;;;;32.70;29.60;;;;;;;19.68;100.00;101200.47;5276624;28;20025;-66
2022/08/18 01:46:26;;;;;;;32.13;29.40;;;;;;;19.62;100.00;101201.19;5276591;28;20045;-67
2022/08/18 01:48:59;;;;;;;32.28;29.50;;;;;;;19.54;100.00;101195.09;5275988;28;20028;-66
2022/08/18 01:51:31;;;;;;;33.75;30.58;;;;;;;19.53;100.00;101202.22;5274471;28;20086;-66
2022/08/18 01:54:03;;;;;;;33.73;30.43;;;;;;;19.51;100.00;101206.91;5275561;28;20024;-66
2022/08/18 01:56:35;;;;;;;33.70;30.70;;;;;;;19.53;100.00;101190.78;5275899;28;20024;-66
2022/08/18 01:59:12;;;;;;;34.57;31.17;;;;;;;19.55;100.00;101194.91;5275216;28;20021;-66
2022/08/18 02:01:46;;;;;;;34.72;31.25;;;;;;;19.51;100.00;101198.09;5273025;28;20294;-66
2022/08/18 02:04:17;;;;;;;30.55;27.70;;;;;;;19.49;100.00;101194.81;5275449;28;20048;-66
2022/08/18 02:06:49;;;;;;;31.87;29.00;;;;;;;19.58;100.00;101189.22;5274344;28;20108;-67
2022/08/18 02:09:21;;;;;;;32.10;29.30;;;;;;;19.52;100.00;101184.66;5274198;28;20028;-66
2022/08/18 02:11:52;;;;;;;33.75;30.40;;;;;;;19.42;100.00;101186.72;5275493;28;20506;-66
2022/08/18 02:14:27;;;;;;;32.20;29.37;;;;;;;19.45;100.00;101189.03;5276205;28;20090;-66
2022/08/18 02:17:00;;;;;;;31.55;28.50;;;;;;;19.37;100.00;101200.56;5275129;28;20074;-66
2022/08/18 02:19:37;;;;;;;29.60;26.90;;;;;;;19.45;100.00;101195.16;5275711;28;20022;-67
2022/08/18 02:22:10;;;;;;;29.38;26.88;;;;;;;19.29;100.00;101205.94;5257365;28;20120;-66
2022/08/18 02:24:42;;;;;;;30.75;27.95;;;;;;;19.32;100.00;101200.28;5275610;28;20028;-66
2022/08/18 02:27:14;;;;;;;30.40;27.52;;;;;;;19.32;100.00;101205.59;5270386;28;20023;-66
2022/08/18 02:29:46;;;;;;;31.33;28.58;;;;;;;19.34;100.00;101208.88;5275323;28;20111;-67
2022/08/18 02:32:17;;;;;;;29.57;26.73;;;;;;;19.30;100.00;101202.25;5275903;28;20508;-67
2022/08/18 02:34:48;;;;;;;29.87;26.97;;;;;;;19.28;100.00;101200.78;5275594;28;20024;-66
2022/08/18 02:37:20;;;;;;;30.23;27.40;;;;;;;19.26;100.00;101208.94;5274478;28;20030;-66
2022/08/18 02:39:51;;;;;;;31.23;28.03;;;;;;;19.21;100.00;101211.31;5275578;28;20016;-67
2022/08/18 02:42:23;;;;;;;30.60;27.90;;;;;;;19.19;100.00;101211.47;5274326;28;20024;-66
2022/08/18 02:44:54;;;;;;;32.37;28.57;;;;;;;19.16;100.00;101217.13;5272680;28;20055;-67
2022/08/18 02:47:26;;;;;;;31.37;28.50;;;;;;;19.20;100.00;101218.44;5275600;28;20475;-66
2022/08/18 02:49:57;;;;;;;29.77;27.17;;;;;;;19.12;100.00;101210.53;5275235;28;20029;-65
2022/08/18 02:52:31;;;;;;;30.83;27.93;;;;;;;19.14;100.00;101223.66;5275024;28;20652;-66
2022/08/18 02:55:03;;;;;;;28.95;26.27;;;;;;;19.06;100.00;101218.41;5273471;28;20119;-66
2022/08/18 02:57:34;;;;;;;29.27;26.60;;;;;;;19.06;100.00;101221.06;5273918;28;20530;-66
2022/08/18 03:00:09;;;;;;;29.80;27.20;;;;;;;19.05;100.00;101206.94;5275170;28;20119;-67
2022/08/18 03:02:45;;;;;;;28.77;26.17;;;;;;;19.05;100.00;101206.94;5273791;28;20075;-67
2022/08/18 03:05:18;;;;;;;31.08;28.27;;;;;;;18.94;100.00;101207.34;5274845;28;20012;-66
2022/08/18 03:07:49;;;;;;;29.03;26.33;;;;;;;18.99;100.00;101206.84;5275349;28;20024;-66
2022/08/18 03:10:21;;;;;;;28.40;25.60;;;;;;;18.91;100.00;101211.19;5274017;28;20513;-67
2022/08/18 03:12:52;;;;;;;29.13;26.23;;;;;;;18.89;100.00;101207.03;5275025;28;20031;-66
2022/08/18 03:15:23;;;;;;;29.45;26.52;;;;;;;18.86;100.00;101215.34;5273101;28;20025;-67
2022/08/18 03:17:55;;;;;;;30.23;27.53;;;;;;;18.86;100.00;101218.00;5273657;28;20596;-67
2022/08/18 03:20:26;;;;;;;30.70;27.67;;;;;;;18.80;100.00;101216.06;5255360;28;20414;-66
2022/08/18 03:22:58;;;;;;;29.88;27.00;;;;;;;18.80;100.00;101216.91;5274846;28;20041;-66
2022/08/18 03:25:30;;;;;;;31.05;28.20;;;;;;;18.81;100.00;101231.00;5274688;28;20024;-67
2022/08/18 03:28:03;;;;;;;29.60;26.70;;;;;;;18.79;100.00;101228.53;5273850;28;20560;-66
2022/08/18 03:30:34;;;;;;;29.05;26.25;;;;;;;18.77;100.00;101224.38;5273349;28;20112;-66
2022/08/18 03:33:06;;;;;;;30.75;27.77;;;;;;;18.81;100.00;101231.81;5274496;28;20416;-66
2022/08/18 03:35:37;;;;;;;30.50;27.53;;;;;;;18.79;100.00;101223.22;5273757;28;20020;-66
2022/08/18 03:38:09;;;;;;;30.40;27.65;;;;;;;18.80;100.00;101232.00;5274632;28;20478;-67
2022/08/18 03:40:41;;;;;;;31.10;28.23;;;;;;;18.78;100.00;101232.16;5274541;28;20016;-66
2022/08/18 03:43:12;;;;;;;31.98;29.00;;;;;;;18.76;100.00;101230.69;5274291;28;20059;-66
2022/08/18 03:45:45;;;;;;;31.47;28.17;;;;;;;18.76;100.00;101236.81;5272895;28;20283;-67
2022/08/18 03:48:16;;;;;;;29.50;26.48;;;;;;;18.70;100.00;101226.88;5274138;28;20020;-66
2022/08/18 03:50:47;;;;;;;29.57;27.00;;;;;;;18.74;100.00;101232.69;5274393;28;20502;-66
2022/08/18 03:53:19;;;;;;;30.10;27.33;;;;;;;18.74;100.00;101238.00;5274669;28;20487;-66
2022/08/18 03:55:50;;;;;;;29.00;26.50;;;;;;;18.72;100.00;101238.19;5273186;28;20498;-66
2022/08/18 03:58:21;;;;;;;28.77;26.00;;;;;;;18.68;100.00;101239.50;5274562;28;20024;-67
2022/08/18 04:00:53;;;;;;;28.90;26.40;;;;;;;18.66;100.00;101223.72;5271760;28;20024;-66
2022/08/18 04:03:27;;;;;;;29.10;26.50;;;;;;;18.67;100.00;101228.03;5271806;28;20024;-66
2022/08/18 04:05:58;;;;;;;31.25;28.48;;;;;;;18.63;100.00;101231.22;5273113;28;20057;-66
2022/08/18 04:08:29;;;;;;;31.10;28.40;;;;;;;18.70;100.00;101233.03;5274121;28;20479;-67
2022/08/18 04:11:00;;;;;;;31.02;28.13;;;;;;;18.76;100.00;101228.03;5274433;28;20487;-66
2022/08/18 04:13:35;;;;;;;31.40;28.35;;;;;;;18.83;100.00;101219.22;5270953;28;20976;-66
2022/08/18 04:16:06;;;;;;;30.95;28.25;;;;;;;18.78;100.00;101221.53;5273600;28;20415;-66
2022/08/18 04:18:37;;;;;;;32.03;29.02;;;;;;;18.81;100.00;101223.84;5271182;28;20079;-66
2022/08/18 04:21:12;;;;;;;32.80;29.87;;;;;;;18.86;100.00;101228.63;5273845;28;20379;-66
2022/08/18 04:23:43;;;;;;;33.65;30.48;;;;;;;18.75;100.00;101227.19;5273519;28;20116;-66
2022/08/18 04:26:17;;;;;;;34.83;31.38;;;;;;;18.85;100.00;101232.28;5274165;28;20447;-67
2022/08/18 04:28:48;;;;;;;36.40;32.95;;;;;;;18.84;100.00;101231.47;5273596;28;20071;-66
2022/08/18 04:31:23;;;;;;;33.78;30.50;;;;;;;18.88;100.00;101223.97;5272379;28;20479;-66
2022/08/18 04:33:59;;;;;;;34.75;31.55;;;;;;;18.83;100.00;101226.34;5276976;28;20031;-66
2022/08/18 04:36:33;;;;;;;36.53;33.05;;;;;;;18.87;100.00;101227.66;5277048;28;20036;-67
2022/08/18 04:39:07;;;;;;;35.60;32.40;;;;;;;18.79;100.00;101233.84;5277788;28;20544;-66
2022/08/18 04:41:42;;;;;;;33.85;30.77;;;;;;;18.84;100.00;101228.81;5271043;28;20036;-66
2022/08/18 04:44:16;;;;;;;35.58;32.28;;;;;;;18.84;100.00;101226.16;5276959;28;20032;-66
2022/08/18 04:46:53;;;;;;;37.20;33.47;;;;;;;18.91;100.00;101239.56;5277217;28;20048;-67
2022/08/18 04:49:25;;;;;;;37.70;34.00;;;;;;;18.85;100.00;101240.25;5276802;28;20028;-66
2022/08/18 04:54:47;;;;;;;36.88;33.42;;;;;;;18.85;100.00;101242.91;5276991;28;20439;-67
2022/08/18 04:57:19;;;;;;;38.40;34.38;;;;;;;18.87;100.00;101254.19;5276296;28;20016;-66
2022/08/18 04:59:51;;;;;;;35.88;32.35;;;;;;;18.89;100.00;101252.19;5276972;28;20028;-66
2022/08/18 05:02:22;;;;;;;37.70;33.95;;;;;;;18.85;100.00;101251.69;5277564;28;20024;-66
2022/08/18 05:04:53;;;;;;;35.92;32.28;;;;;;;18.89;100.00;101238.91;5276539;28;20455;-66
2022/08/18 05:07:25;;;;;;;34.47;31.37;;;;;;;18.92;100.00;101239.38;5276750;28;20074;-66
2022/08/18 05:09:56;;;;;;;37.77;33.07;;;;;;;18.88;100.00;101246.03;5276367;28;20021;-66
2022/08/18 05:12:28;;;;;;;36.40;32.47;;;;;;;18.93;100.00;101253.47;5277559;28;20012;-66
2022/08/18 05:14:59;;;;;;;35.47;32.10;;;;;;;18.94;100.00;101255.13;5275463;28;20032;-66
2022/08/18 05:17:31;;;;;;;35.80;32.35;;;;;;;18.97;100.00;101262.75;5277060;28;20027;-67
2022/08/18 05:20:03;;;;;;;36.25;32.78;;;;;;;18.89;100.00;101260.16;5276951;28;20040;-66
2022/08/18 05:22:39;;;;;;;36.00;32.13;;;;;;;19.06;100.00;101263.53;5277106;28;20051;-66
2022/08/18 05:25:11;;;;;;;36.67;32.72;;;;;;;18.91;100.00;101260.81;5275902;28;20028;-66
2022/08/18 05:27:43;;;;;;;36.55;32.72;;;;;;;18.97;100.00;101254.78;5275169;28;20025;-66
2022/08/18 05:30:14;;;;;;;37.03;33.17;;;;;;;18.99;100.00;101262.59;5257129;28;20123;-66
2022/08/18 05:32:46;;;;;;;36.50;32.83;;;;;;;19.03;100.00;101263.91;5276476;28;20360;-66
2022/08/18 05:35:23;;;;;;;33.53;30.13;;;;;;;19.11;100.00;101254.03;5276344;28;20117;-66
2022/08/18 05:38:29;;;;;;;33.78;30.55;;;;;;;19.30;100.00;101255.41;5276912;28;20439;-66
2022/08/18 05:41:07;;;;;;;33.30;30.00;;;;;;;19.14;100.00;101272.28;5274244;28;20037;-66
2022/08/18 05:43:41;;;;;;;33.72;30.42;;;;;;;19.11;100.00;101262.00;5276082;28;20025;-66
2022/08/18 05:46:12;;;;;;;33.72;30.63;;;;;;;19.13;100.00;101267.13;5258029;28;20041;-66
2022/08/18 05:48:43;;;;;;;36.05;31.27;;;;;;;19.13;100.00;101260.00;5274972;28;20024;-65
2022/08/18 05:51:25;;;;;;;33.23;29.77;;;;;;;19.32;100.00;101264.03;5276485;28;20016;-66
2022/08/18 05:56:51;;;;;;;33.38;29.92;;;;;;;19.28;100.00;101276.03;5274725;28;20020;-67
2022/08/18 05:59:31;;;;;;;32.85;29.67;;;;;;;19.28;100.00;101278.69;5272828;28;20115;-67
2022/08/18 06:02:30;;;;;;;32.85;29.35;;;;;;;19.48;100.00;101268.41;5273453;28;20475;-66
2022/08/18 06:05:10;;;;;;;32.47;29.33;;;;;;;19.48;100.00;101283.50;5275067;28;20036;-67
2022/08/18 06:07:58;;;;;;;34.75;31.05;;;;;;;19.56;100.00;101278.94;5275864;28;20275;-67
2022/08/18 06:10:32;;;;;;;35.15;30.27;;;;;;;19.35;100.00;101274.28;5271966;28;20036;-67
2022/08/18 06:13:08;;;;;;;34.67;31.27;;;;;;;19.56;100.00;101276.28;5273013;28;20497;-67
2022/08/18 06:16:07;;;;;;;33.03;29.83;;;;;;;19.82;100.00;101277.78;5272736;28;20040;-67
2022/08/18 06:18:57;;;;;;;34.95;31.63;;;;;;;19.71;100.00;101270.22;5274859;28;20441;-66
2022/08/18 06:21:41;;;;;;;36.60;32.42;;;;;;;19.71;100.00;101275.56;5274016;28;20046;-66
2022/08/18 06:24:27;;;;;;;37.03;32.88;;;;;;;19.73;100.00;101277.00;5274758;28;20028;-67
2022/08/18 06:27:19;;;;;;;36.92;33.35;;;;;;;19.79;100.00;101280.78;5275108;28;20047;-66
2022/08/18 06:30:04;;;;;;;34.77;31.27;;;;;;;19.81;100.00;101284.94;5272211;28;20101;-67
2022/08/18 06:33:04;;;;;;;37.13;33.45;;;;;;;19.72;100.00;101291.31;5275089;28;20316;-66
2022/08/18 06:35:49;;;;;;;34.92;31.33;;;;;;;19.80;100.00;101296.56;5274572;28;20067;-66
2022/08/18 06:38:39;;;;;;;36.70;33.17;;;;;;;19.71;100.00;101292.31;5275575;28;20024;-66
2022/08/18 06:41:21;;;;;;;31.58;28.38;;;;;;;19.70;100.00;101285.38;5270755;28;20024;-66
2022/08/18 06:44:08;;;;;;;33.63;30.35;;;;;;;19.89;100.00;101295.50;5274450;28;20476;-66
2022/08/18 06:47:33;;;;;;;33.70;30.40;;;;;;;20.22;100.00;101294.34;5272130;28;20511;-66
2022/08/18 06:50:07;;;;;;;34.85;31.30;;;;;;;20.06;100.00;101288.16;5175563;28;20464;-67
2022/08/18 06:52:51;;;;;;;35.85;32.47;;;;;;;20.24;100.00;101300.31;5201239;28;20120;-66
2022/08/18 06:55:38;;;;;;;35.55;32.05;;;;;;;20.25;100.00;101302.78;5251967;28;20047;-66
2022/08/18 06:58:16;;;;;;;36.15;32.55;;;;;;;20.21;100.00;101301.50;5273016;28;20117;-64
2022/08/18 07:00:53;;;;;;;34.60;31.20;;;;;;;20.27;100.00;101299.94;5267858;28;20028;-67
2022/08/18 07:03:33;;;;;;;33.28;30.17;;;;;;;20.40;100.00;101298.28;5270905;28;20086;-65
2022/08/18 07:06:26;;;;;;;33.10;29.80;;;;;;;20.45;100.00;101308.38;5272790;28;20503;-64
2022/08/18 07:09:32;;;;;;;31.70;28.08;;;;;;;20.68;100.00;101312.81;5272437;28;20031;-66
2022/08/18 07:12:07;;;;;;;31.83;28.83;;;;;;;20.42;100.00;101304.25;5224701;28;20068;-66
2022/08/18 07:14:44;;;;;;;31.45;28.55;;;;;;;20.54;100.00;101302.00;5270860;28;20024;-65
2022/08/18 07:17:22;;;;;;;32.40;29.35;;;;;;;20.54;100.00;101307.31;5272001;28;20047;-65
2022/08/18 07:20:05;;;;;;;32.40;29.58;;;;;;;20.76;100.00;101310.88;5272576;28;20020;-66
2022/08/18 07:23:01;;;;;;;30.25;27.58;;;;;;;20.93;100.00;101305.34;5272054;28;20549;-66
2022/08/18 07:25:42;;;;;;;29.80;27.10;;;;;;;20.85;100.00;101301.78;5272591;28;20039;-66
2022/08/18 07:28:35;;;;;;;29.15;26.42;;;;;;;21.02;100.00;101314.84;5272442;28;20024;-67
2022/08/18 07:31:25;;;;;;;29.70;26.77;;;;;;;21.06;100.00;101316.13;5270697;28;20036;-66
2022/08/18 07:34:07;;;;;;;27.65;25.23;;;;;;;21.02;100.00;101305.03;5271043;28;20169;-66
2022/08/18 07:37:00;;;;;;;28.95;26.33;;;;;;;21.27;100.00;101312.69;5273193;28;20059;-66
2022/08/18 07:39:45;;;;;;;29.08;26.38;;;;;;;21.45;100.00;101301.63;5273398;28;20055;-65
2022/08/18 07:42:29;;;;;;;27.52;25.15;;;;;;;21.45;100.00;101307.78;5269839;28;20267;-66
2022/08/18 07:45:08;;;;;;;26.02;23.70;;;;;;;21.41;100.00;101309.19;5271178;28;21221;-66
2022/08/18 07:48:04;;;;;;;24.45;22.27;;;;;;;21.64;100.00;101321.50;5269439;28;20029;-66
2022/08/18 07:51:13;;;;;;;26.77;24.42;;;;;;;21.76;100.00;101318.13;5272710;28;20020;-67
2022/08/18 07:54:09;;;;;;;22.90;20.95;;;;;;;21.75;100.00;101308.47;5260112;28;20090;-67
2022/08/18 07:56:52;;;;;;;23.02;20.95;;;;;;;21.54;100.00;101308.47;5269149;28;20111;-66
2022/08/18 07:59:33;;;;;;;23.58;21.58;;;;;;;21.80;100.00;101307.88;5271830;28;20029;-67
2022/08/18 08:02:35;;;;;;;24.88;22.65;;;;;;;22.08;100.00;101316.72;5271373;28;20029;-67
2022/08/18 08:05:34;;;;;;;23.95;21.50;;;;;;;22.23;100.00;101318.50;5261278;28;20446;-67
2022/08/18 08:08:32;;;;;;;23.63;21.52;;;;;;;22.38;100.00;101313.84;5275820;28;20963;-66
2022/08/18 08:11:16;;;;;;;22.92;20.92;;;;;;;22.40;100.00;101309.16;5277614;28;20073;-67
2022/08/18 08:14:02;;;;;;;21.48;19.38;;;;;;;22.50;100.00;101314.13;5276054;28;20534;-67
2022/08/18 08:16:50;;;;;;;20.67;18.75;;;;;;;22.46;100.00;101316.38;5272615;28;20025;-67
2022/08/18 08:19:24;;;;;;;20.90;19.02;;;;;;;22.46;100.00;101313.69;5276306;28;20028;-67
2022/08/18 08:22:03;;;;;;;18.92;17.23;;;;;;;22.61;100.00;101313.56;5276317;28;20063;-67
2022/08/18 08:24:56;;;;;;;19.17;17.35;;;;;;;22.64;100.00;101318.53;5274618;28;20067;-67
2022/08/18 08:27:59;;;;;;;17.50;15.90;;;;;;;22.61;100.00;101321.59;5276900;28;20069;-67
2022/08/18 08:30:32;;;;;;;;;;;;;;;23.23;100.00;101333.19;5266578;28;20521;-67
2022/08/18 08:33:18;;;;;;;20.00;17.63;;;;;;;22.67;100.00;101322.66;5274442;28;19916;-67
2022/08/18 08:36:25;;;;;;;19.85;17.90;;;;;;;22.77;100.00;101326.63;5272566;28;20429;-68
2022/08/18 08:39:00;;;;;;;18.02;16.48;;;;;;;22.55;100.00;101325.06;5275449;28;20565;-67
2022/08/18 08:41:39;;;;;;;18.80;16.80;;;;;;;22.63;100.00;101319.56;5276234;28;20030;-67
2022/08/18 08:44:31;;;;;;;17.33;15.68;;;;;;;22.77;100.00;101331.94;5274833;28;20037;-67
2022/08/18 08:47:12;;;;;;;18.43;16.83;;;;;;;;;;5276619;28;20189;-67
2022/08/18 08:49:49;;;;;;;16.70;15.15;;;;;;;23.05;100.00;101337.22;5273791;28;20040;-66
2022/08/18 08:52:29;;;;;;;17.45;15.95;;;;;;;23.23;100.00;101330.50;5274584;28;20035;-68
2022/08/18 08:55:10;;;;;;;16.48;14.90;;;;;;;23.40;100.00;101347.81;5274276;28;20449;-67
2022/08/18 08:57:55;;;;;;;16.23;14.82;;;;;;;23.54;100.00;101341.47;5267145;28;20495;-67
2022/08/18 09:00:28;;;;;;;15.25;13.82;;;;;;;23.41;100.00;101332.56;5270031;28;20027;-67
2022/08/18 09:02:59;;;;;;;16.70;15.10;;;;;;;23.72;100.00;101329.38;5271098;28;20117;-68
2022/08/18 09:05:46;;;;;;;15.10;13.80;;;;;;;24.01;100.00;101328.13;5271362;28;20115;-66
2022/08/18 09:08:30;;;;;;;15.55;14.05;;;;;;;23.77;100.00;101333.06;5269505;28;20134;-67
2022/08/18 09:11:44;;;;;;;13.68;12.35;;;;;;;24.31;100.00;101328.50;5272010;28;20043;-68
2022/08/18 09:14:35;;;;;;;;;;;;;;;24.78;100.00;101331.91;5219057;28;20449;-67
2022/08/18 09:17:28;;;;;;;12.10;11.00;;;;;;;24.12;100.00;101332.03;5269729;28;19926;-67
2022/08/18 09:20:20;;;;;;;13.43;10.93;;;;;;;24.19;100.00;101332.84;5273026;28;20037;-66
2022/08/18 09:22:58;;;;;;;11.57;10.57;;;;;;;24.35;100.00;101339.63;5271810;28;20103;-68
2022/08/18 09:25:31;;;;;;;10.70;9.70;;;;;;;24.35;100.00;101339.63;5273494;28;20028;-67
2022/08/18 09:28:22;;;;;;;12.50;10.00;;;;;;;24.60;100.00;101335.25;5273725;28;20082;-67
2022/08/18 09:31:05;;;;;;;9.95;9.05;;;;;;;24.54;100.00;101324.56;5273667;28;20426;-67
2022/08/18 09:33:39;;;;;;;9.48;8.18;;;;;;;24.46;100.00;101325.63;5274958;28;20479;-68
2022/08/18 09:36:29;;;;;;;12.63;11.52;;;;;;;24.12;100.00;101329.34;5271147;28;20031;-66
2022/08/18 09:42:35;;;;;;;13.23;10.40;;;;;;;24.25;100.00;101329.34;5264820;28;20036;-67
2022/08/18 09:45:28;;;;;;;12.48;11.18;;;;;;;24.24;100.00;101327.69;5272924;28;20087;-67
2022/08/18 09:48:20;;;;;;;10.88;9.77;;;;;;;24.36;100.00;101322.50;5273886;28;20033;-67
2022/08/18 09:51:14;;;;;;;11.18;10.18;;;;;;;24.52;100.00;101328.28;5274201;28;20024;-67
2022/08/18 09:53:45;;;;;;;12.30;11.30;;;;;;;24.23;100.00;101323.38;5271029;28;20463;-67
2022/08/18 09:56:48;;;;;;;13.57;11.90;;;;;;;24.53;100.00;101318.38;5273758;28;20077;-67
2022/08/18 09:59:31;;;;;;;11.68;10.57;;;;;;;24.47;100.00;101316.53;5272282;28;20031;-67
2022/08/18 10:02:06;;;;;;;10.63;9.63;;;;;;;24.21;100.00;101325.44;5272117;28;20040;-67
2022/08/18 10:04:47;;;;;;;10.73;9.63;;;;;;;24.14;100.00;101329.97;5272539;28;20179;-67
2022/08/18 10:07:38;;;;;;;10.73;9.65;;;;;;;24.48;100.00;101323.56;5271597;28;20368;-67
2022/08/18 10:10:27;;;;;;;10.13;9.13;;;;;;;24.49;100.00;101320.66;5272036;28;20082;-69
2022/08/18 10:13:23;;;;;;;10.65;9.65;;;;;;;24.39;100.00;101316.75;5271772;28;20024;-68
2022/08/18 10:16:09;;;;;;;11.43;9.63;;;;;;;24.79;100.00;101316.66;5271148;28;20039;-69
2022/08/18 10:18:59;;;;;;;10.02;9.00;;;;;;;25.29;100.00;101312.28;5269055;28;20527;-68
2022/08/18 10:22:00;;;;;;;10.00;9.05;;;;;;;25.48;100.00;101315.88;5272972;28;20081;-69
2022/08/18 10:24:40;;;;;;;10.63;8.63;;;;;;;25.39;100.00;101311.81;5269571;28;20032;-68
2022/08/18 10:27:44;;;;;;;9.27;8.38;;;;;;;25.82;100.00;101313.78;5272149;28;20039;-67
2022/08/18 10:30:29;;;;;;;11.85;8.30;;;;;;;25.69;100.00;101315.50;5262929;28;20035;-68
2022/08/18 10:33:06;;;;;;;8.18;7.35;;;;;;;25.78;100.00;101305.34;5272670;28;20394;-67
2022/08/18 10:35:40;;;;;;;8.00;6.57;;;;;;;25.69;100.00;101307.47;5271999;28;20510;-68
2022/08/18 10:38:21;;;;;;;7.80;6.97;;;;;;;25.70;100.00;101301.03;5271043;28;20040;-67
2022/08/18 10:41:03;;;;;;;8.15;7.35;;;;;;;25.62;100.00;101308.56;5268584;28;20025;-68
2022/08/18 10:43:41;;;;;;;9.60;8.10;;;;;;;25.43;100.00;101303.13;5272169;28;20085;-69
2022/08/18 10:46:22;;;;;;;8.65;7.75;;;;;;;25.33;100.00;101304.63;5273993;28;20608;-67
2022/08/18 10:48:58;;;;;;;7.22;6.53;;;;;;;25.23;100.00;101310.47;5268818;28;20028;-67
2022/08/18 10:51:46;;;;;;;7.65;6.78;;;;;;;25.03;100.00;101313.22;5272299;28;20509;-68
2022/08/18 10:54:53;;;;;;;7.30;6.45;;;;;;;25.48;100.00;101307.81;5273512;28;20467;-68
2022/08/18 10:57:47;;;;;;;8.05;5.82;;;;;;;25.42;100.00;101311.34;5270243;28;20747;-67
2022/08/18 11:00:20;;;;;;;7.68;6.07;;;;;;;25.35;100.00;101313.28;5269922;28;20098;-69
2022/08/18 11:03:20;;;;;;;6.40;5.78;;;;;;;25.72;100.00;101314.22;5268164;28;20028;-70
2022/08/18 11:06:01;;;;;;;7.15;6.45;;;;;;;25.39;100.00;101301.91;5270471;28;20058;-68
2022/08/18 11:08:42;;;;;;;8.52;6.28;;;;;;;25.37;100.00;101306.66;5273152;28;20059;-69
2022/08/18 11:11:21;;;;;;;7.13;6.43;;;;;;;25.29;100.00;101296.19;5270085;28;20063;-67
2022/08/18 11:14:06;;;;;;;7.13;6.43;;;;;;;25.46;100.00;101294.63;5270333;28;20512;-68
2022/08/18 11:16:55;;;;;;;7.72;6.43;;;;;;;25.68;100.00;101296.94;5264846;28;20560;-68
2022/08/18 11:19:27;;;;;;;6.68;6.00;;;;;;;25.74;100.00;101298.75;5271712;28;20025;-68
2022/08/18 11:22:00;;;;;;;7.57;5.57;;;;;;;26.11;100.00;101290.81;5272393;28;20028;-68
2022/08/18 11:24:34;;;;;;;6.88;5.35;;;;;;;26.15;100.00;101282.06;5270406;28;20066;-69
2022/08/18 11:27:17;;;;;;;8.13;7.13;;;;;;;26.41;100.00;101280.97;5271917;28;20048;-67
2022/08/18 11:29:50;;;;;;;7.30;6.60;;;;;;;26.14;100.00;101285.81;5271622;28;20608;-68
2022/08/18 11:32:24;;;;;;;;;;;;;;;26.89;100.00;101280.16;5273578;28;20028;-67
2022/08/18 11:35:19;;;;;;;6.95;6.25;;;;;;;26.65;100.00;101276.56;5270615;28;20378;-68
2022/08/18 11:37:58;;;;;;;7.00;6.05;;;;;;;26.49;100.00;101266.44;5272194;28;20483;-68
2022/08/18 11:40:34;;;;;;;8.00;7.22;;;;;;;26.46;100.00;101271.44;5270424;28;20028;-67
2022/08/18 11:43:11;;;;;;;7.78;5.95;;;;;;;26.50;100.00;101257.31;5268699;28;20077;-67
2022/08/18 11:45:42;;;;;;;7.32;5.95;;;;;;;26.48;100.00;101258.59;5292410;22;20052;-69
2022/08/18 11:48:14;;;;;;;7.67;6.90;;;;;;;26.29;100.00;101261.28;5263741;28;20105;-69
2022/08/18 11:51:02;;;;;;;7.40;6.40;;;;;;;26.75;100.00;101267.16;5267650;28;20491;-70
2022/08/18 11:53:35;;;;;;;7.00;6.30;;;;;;;26.44;100.00;101259.03;5270396;28;20471;-70
2022/08/18 11:56:10;;;;;;;9.38;7.07;;;;;;;26.53;100.00;101256.06;5259794;28;20040;-70
2022/08/18 11:58:45;;;;;;;7.40;6.65;;;;;;;26.49;100.00;101241.44;5260892;28;20021;-70
2022/08/18 12:01:32;;;;;;;7.70;6.60;;;;;;;26.64;100.00;101244.56;5262752;28;20021;-70
2022/08/18 12:04:10;;;;;;;7.40;6.70;;;;;;;26.54;100.00;101237.00;5264224;28;20032;-70
2022/08/18 12:06:44;;;;;;;8.98;6.65;;;;;;;26.37;100.00;101242.16;5265684;28;20036;-70
2022/08/18 12:09:19;;;;;;;7.68;6.28;;;;;;;26.34;100.00;101245.28;5247117;28;20086;-70
2022/08/18 12:11:56;;;;;;;5.85;5.32;;;;;;;26.54;100.00;101241.56;5266135;28;20017;-69
2022/08/18 12:14:32;;;;;;;5.60;4.93;;;;;;;26.67;100.00;101255.66;5258687;28;20028;-70
2022/08/18 12:17:07;;;;;;;6.93;5.65;;;;;;;26.76;100.00;101256.16;5262009;28;20093;-70